Time;durP1;ratioP1;P1;durP2;ratioP2;P2;SDS_P1;SDS_P2;PMS_P1;PMS_P2;Temp;Humidity;BMP_temperature;BMP_pressure;BME280_temperature;BME280_humidity;BME280_pressure;Samples;Min_cycle;Max_cycle;Signal;HPM_P1;HPM_P2
2023/05/31 05:24:12;;;;;;;11.20;7.30;;;;;;;14.73;81.94;95825.02;104400;1305;557672;-76
2023/05/31 05:26:41;;;;;;;11.80;6.80;;;;;;;15.01;80.48;95827.34;106184;1286;163721;-72
2023/05/31 05:29:09;;;;;;;13.40;7.00;;;;;;;15.10;80.23;95822.98;106281;1286;22534;-73
2023/05/31 05:31:37;;;;;;;12.40;6.90;;;;;;;15.24;79.85;95823.79;106061;1286;24361;-75
2023/05/31 05:34:06;;;;;;;9.20;6.40;;;;;;;15.40;79.67;95821.11;106164;1286;25401;-71
2023/05/31 05:36:35;;;;;;;17.50;12.00;;;;;;;15.61;80.22;95823.23;106220;1286;22539;-75
2023/05/31 05:39:06;;;;;;;11.90;6.90;;;;;;;15.84;80.13;95820.86;106272;1286;25463;-72
2023/05/31 05:41:34;;;;;;;14.00;8.30;;;;;;;16.06;78.17;95822.73;106289;1286;22569;-71
2023/05/31 05:44:03;;;;;;;11.60;7.50;;;;;;;16.25;77.57;95819.19;106272;1286;22537;-80
2023/05/31 05:46:32;;;;;;;11.40;7.00;;;;;;;16.53;78.52;95819.73;106313;1286;24256;-75
2023/05/31 05:49:02;;;;;;;9.70;6.90;;;;;;;16.80;76.87;95820.99;106234;1286;24284;-77
2023/05/31 05:51:31;;;;;;;8.60;5.40;;;;;;;17.02;73.80;95820.16;105746;1286;22580;-79
2023/05/31 05:54:03;;;;;;;12.00;6.80;;;;;;;17.21;73.17;95816.86;106332;1286;25462;-76
2023/05/31 05:56:31;;;;;;;168.40;80.60;;;;;;;17.31;71.38;95822.52;106676;1270;23922;-71
2023/05/31 05:59:00;;;;;;;121.40;74.50;;;;;;;17.44;72.05;95825.40;106752;1279;25401;-68
2023/05/31 06:01:44;;;;;;;10.90;8.60;;;;;;;17.62;72.72;95832.09;106713;1279;22618;-68
2023/05/31 06:04:13;;;;;;;13.00;6.60;;;;;;;17.76;71.97;95827.76;106354;1276;25351;-69
2023/05/31 06:06:43;;;;;;;9.90;5.70;;;;;;;17.83;70.78;95828.02;106366;1279;22530;-67
2023/05/31 06:09:13;;;;;;;11.60;6.50;;;;;;;17.92;69.75;95827.98;106962;1279;24428;-68
2023/05/31 06:11:42;;;;;;;10.70;8.40;;;;;;;18.01;69.83;95828.48;106387;1279;25386;-71
2023/05/31 06:14:10;;;;;;;17.70;14.70;;;;;;;18.06;67.98;95828.27;106469;1279;22620;-68
2023/05/31 06:16:41;;;;;;;11.90;9.90;;;;;;;18.09;67.44;95829.01;106699;1279;22611;-74
2023/05/31 06:19:09;;;;;;;9.10;7.20;;;;;;;18.14;66.74;95833.23;106585;1279;23146;-73
2023/05/31 06:21:37;;;;;;;9.80;7.50;;;;;;;18.12;66.48;95832.95;106556;1279;24095;-69
2023/05/31 06:24:05;;;;;;;7.80;5.80;;;;;;;18.06;66.86;95836.27;106528;1279;23164;-76
2023/05/31 06:26:35;;;;;;;9.90;6.20;;;;;;;18.00;65.39;95834.90;106364;1279;25490;-74
2023/05/31 06:29:04;;;;;;;8.00;5.90;;;;;;;17.98;65.82;95836.27;106355;1279;24364;-74
2023/05/31 06:32:10;;;;;;;9.00;5.80;;;;;;;17.99;67.41;95832.14;106624;1279;24279;-72
2023/05/31 06:34:41;;;;;;;9.10;6.30;;;;;;;18.05;67.91;95831.12;106711;1279;22525;-69
2023/05/31 06:37:11;;;;;;;9.90;6.20;;;;;;;18.13;68.53;95829.53;106677;1279;24205;-70
2023/05/31 06:39:39;;;;;;;9.60;6.40;;;;;;;18.21;68.66;95826.69;106176;1265;26932;-71
2023/05/31 06:42:08;;;;;;;7.80;5.90;;;;;;;18.32;68.74;95831.36;106433;1279;25468;-70
2023/05/31 06:44:54;;;;;;;8.20;6.10;;;;;;;18.39;68.42;95832.11;106630;1279;24441;-67
2023/05/31 06:47:43;;;;;;;11.20;6.50;;;;;;;18.42;68.27;95833.77;106379;1279;25469;-70
2023/05/31 06:50:24;;;;;;;7.10;5.50;;;;;;;18.43;67.45;95832.47;106329;1279;22532;-70
2023/05/31 06:53:12;;;;;;;7.80;5.90;;;;;;;18.49;67.52;95832.17;106420;1279;25390;-70
2023/05/31 06:55:51;;;;;;;9.00;5.70;;;;;;;18.54;67.80;95838.16;106363;1279;22528;-70
2023/05/31 06:58:20;;;;;;;7.50;5.80;;;;;;;18.62;66.72;95836.95;106711;1268;24820;-71
2023/05/31 07:00:51;;;;;;;10.10;6.60;;;;;;;18.70;67.09;95834.25;106547;1279;22524;-70
2023/05/31 07:03:20;;;;;;;10.00;7.30;;;;;;;18.80;66.65;95839.14;106602;1279;24233;-70
2023/05/31 07:05:48;;;;;;;8.90;6.30;;;;;;;18.84;66.48;95837.17;105997;1279;25360;-70
2023/05/31 07:08:17;;;;;;;10.80;7.50;;;;;;;18.87;65.92;95842.39;106398;1280;22587;-68
2023/05/31 07:11:12;;;;;;;9.80;6.50;;;;;;;18.94;65.97;95841.35;106104;1280;26129;-68
2023/05/31 07:13:41;;;;;;;8.70;6.30;;;;;;;19.01;66.69;95843.12;106456;1280;22653;-68
2023/05/31 07:16:09;;;;;;;9.70;7.60;;;;;;;19.10;66.57;95847.88;106119;1273;22810;-68
2023/05/31 07:18:37;;;;;;;8.70;6.60;;;;;;;19.12;65.39;95847.06;106250;1276;22577;-69
2023/05/31 07:21:08;;;;;;;10.10;6.00;;;;;;;19.18;65.36;95845.73;106261;1279;25028;-69
2023/05/31 07:23:36;;;;;;;9.80;6.10;;;;;;;19.22;65.22;95848.55;106065;1279;22544;-69
2023/05/31 07:26:04;;;;;;;15.30;6.40;;;;;;;19.24;64.56;95847.02;106213;1279;25360;-69
2023/05/31 07:28:32;;;;;;;9.50;6.50;;;;;;;19.29;64.71;95846.79;106650;1279;25217;-68
2023/05/31 07:31:01;;;;;;;10.40;6.50;;;;;;;19.35;65.29;95845.42;106576;1279;23340;-68
2023/05/31 07:33:30;;;;;;;8.50;6.10;;;;;;;19.43;65.26;95846.83;106683;1279;25335;-70
2023/05/31 07:36:00;;;;;;;7.90;5.80;;;;;;;19.44;64.62;95841.58;108452;1279;25268;-71
2023/05/31 07:38:28;;;;;;;9.80;6.10;;;;;;;19.49;64.56;95842.23;106716;1279;22608;-73
2023/05/31 07:40:57;;;;;;;10.80;6.50;;;;;;;19.56;65.09;95838.48;106500;1279;23153;-71
2023/05/31 07:43:26;;;;;;;7.50;6.20;;;;;;;19.64;64.80;95836.31;106610;1279;25300;-72
2023/05/31 07:45:54;;;;;;;9.60;6.20;;;;;;;19.67;64.23;95833.86;106628;1279;24062;-74
2023/05/31 07:48:23;;;;;;;8.20;6.50;;;;;;;19.68;63.44;95830.98;106622;1279;24360;-69
2023/05/31 07:50:51;;;;;;;12.00;7.00;;;;;;;19.64;63.27;95833.80;106225;1279;24246;-70
2023/05/31 07:53:20;;;;;;;7.90;6.00;;;;;;;19.72;64.13;95835.95;106222;1279;22644;-70
2023/05/31 07:55:48;;;;;;;10.50;6.30;;;;;;;19.84;64.48;95835.51;106623;1279;25352;-72
2023/05/31 07:58:16;;;;;;;10.20;6.90;;;;;;;19.97;64.29;95836.30;106469;1279;22530;-69
2023/05/31 08:00:44;;;;;;;7.90;6.50;;;;;;;20.08;64.15;95832.10;106727;1279;23079;-70
2023/05/31 08:03:14;;;;;;;20.50;12.10;;;;;;;20.26;64.01;95836.16;106643;1279;22568;-68
2023/05/31 08:05:42;;;;;;;11.80;9.30;;;;;;;20.28;61.49;95831.63;106588;1279;22644;-75
2023/05/31 08:08:10;;;;;;;10.40;7.30;;;;;;;20.23;61.81;95835.95;106668;1267;22637;-71
2023/05/31 08:10:38;;;;;;;9.40;6.30;;;;;;;20.30;62.36;95834.52;106727;1279;24241;-74
2023/05/31 08:13:07;;;;;;;9.00;6.40;;;;;;;20.46;63.12;95833.86;106642;1279;25468;-70
2023/05/31 08:15:35;;;;;;;7.40;6.00;;;;;;;20.63;62.93;95835.66;106639;1279;22531;-71
2023/05/31 08:18:04;;;;;;;7.40;6.20;;;;;;;20.73;61.81;95833.85;106625;1279;25233;-67
2023/05/31 08:20:34;;;;;;;7.80;5.80;;;;;;;20.85;62.21;95835.54;106385;1279;25428;-70
2023/05/31 08:23:03;;;;;;;9.40;7.50;;;;;;;20.93;61.47;95834.17;106244;1279;22580;-73
2023/05/31 08:25:31;;;;;;;8.50;6.60;;;;;;;20.98;61.91;95833.88;106370;1279;22523;-69
2023/05/31 08:27:59;;;;;;;8.20;6.30;;;;;;;21.07;60.59;95836.47;106362;1279;24383;-70
2023/05/31 08:30:27;;;;;;;10.10;7.00;;;;;;;21.14;59.88;95832.98;106134;1279;24746;-68
2023/05/31 08:32:56;;;;;;;10.80;6.80;;;;;;;21.23;60.43;95827.88;106280;1279;26957;-69
2023/05/31 08:35:25;;;;;;;8.90;6.30;;;;;;;21.34;60.72;95825.80;106419;1273;22520;-69
2023/05/31 08:37:54;;;;;;;7.90;6.40;;;;;;;21.47;60.54;95829.00;106269;1277;24253;-69
2023/05/31 08:40:23;;;;;;;11.80;7.40;;;;;;;21.53;58.83;95828.45;106206;1280;25064;-68
2023/05/31 08:43:07;;;;;;;8.00;6.50;;;;;;;21.52;58.83;95827.48;106042;1257;22636;-69
2023/05/31 08:45:36;;;;;;;8.80;6.60;;;;;;;21.64;59.62;95825.69;106090;1278;24250;-69
2023/05/31 08:48:13;;;;;;;9.10;6.60;;;;;;;21.76;59.73;95825.48;106064;1280;24481;-68
2023/05/31 08:50:42;;;;;;;10.30;6.50;;;;;;;21.94;59.96;95820.31;106202;1280;22547;-69
2023/05/31 08:53:11;;;;;;;11.90;6.20;;;;;;;22.08;58.61;95818.40;106209;1280;22647;-69
2023/05/31 08:55:40;;;;;;;9.90;6.90;;;;;;;22.08;57.98;95815.41;106223;1280;23943;-71
2023/05/31 08:58:10;;;;;;;8.60;6.30;;;;;;;22.13;58.42;95817.79;106301;1280;22534;-70
2023/05/31 09:00:39;;;;;;;13.60;6.90;;;;;;;22.22;57.57;95815.59;106518;1276;22521;-74
2023/05/31 09:03:09;;;;;;;10.00;6.90;;;;;;;22.30;57.32;95814.44;106596;1276;22517;-68
2023/05/31 09:05:38;;;;;;;7.50;6.50;;;;;;;22.28;57.37;95814.74;106491;1276;22536;-71
2023/05/31 09:08:06;;;;;;;8.70;6.60;;;;;;;22.32;58.22;95817.15;106398;1276;25770;-71
2023/05/31 09:10:34;;;;;;;7.90;6.80;;;;;;;22.35;57.57;95815.40;106501;1276;25274;-71
2023/05/31 09:13:03;;;;;;;8.20;6.70;;;;;;;22.40;58.10;95811.50;106527;1276;24231;-70
2023/05/31 09:15:31;;;;;;;11.50;6.70;;;;;;;22.52;58.12;95810.88;107905;1276;25459;-71
2023/05/31 09:18:13;;;;;;;8.50;6.50;;;;;;;22.65;57.99;95812.27;106591;1276;22527;-71
2023/05/31 09:20:41;;;;;;;9.50;7.30;;;;;;;22.82;58.20;95810.27;106601;1276;22530;-71
2023/05/31 09:23:10;;;;;;;8.20;7.00;;;;;;;22.93;57.02;95810.31;106533;1266;25536;-71
2023/05/31 09:25:53;;;;;;;9.30;6.50;;;;;;;23.03;56.66;95813.46;106631;1276;25470;-70
2023/05/31 09:28:22;;;;;;;10.00;7.00;;;;;;;23.24;56.94;95812.05;106597;1276;22632;-71
2023/05/31 09:31:05;;;;;;;10.70;7.10;;;;;;;23.40;56.29;95807.06;106641;1276;22543;-71
2023/05/31 09:33:44;;;;;;;8.10;6.60;;;;;;;23.53;55.25;95807.48;106637;1276;22521;-71
2023/05/31 09:36:13;;;;;;;10.60;7.20;;;;;;;23.62;55.31;95806.89;106607;1276;24383;-70
2023/05/31 09:38:42;;;;;;;9.90;6.50;;;;;;;23.81;56.17;95808.37;106603;1276;23906;-70
2023/05/31 09:41:17;;;;;;;7.60;6.20;;;;;;;24.00;55.02;95811.56;106834;1276;25398;-71
2023/05/31 09:43:47;;;;;;;7.90;6.70;;;;;;;24.13;54.87;95808.48;106655;1276;22631;-70
2023/05/31 09:46:17;;;;;;;9.60;6.40;;;;;;;24.31;54.54;95806.85;106726;1276;22520;-70
2023/05/31 09:49:09;;;;;;;11.30;7.10;;;;;;;24.40;50.65;95799.21;106620;1276;24350;-71
2023/05/31 09:51:37;;;;;;;7.40;5.90;;;;;;;24.42;51.66;95790.66;106569;1276;24726;-71
2023/05/31 09:54:14;;;;;;;7.30;6.00;;;;;;;24.47;51.58;95789.25;106552;1276;24444;-71
2023/05/31 09:56:43;;;;;;;8.90;6.50;;;;;;;24.35;51.88;95794.38;106584;1276;22524;-71
2023/05/31 09:59:12;;;;;;;8.60;6.40;;;;;;;24.35;52.58;95793.83;106668;1276;25485;-70
2023/05/31 10:01:40;;;;;;;8.20;6.30;;;;;;;24.59;52.16;95787.89;106631;1276;22536;-71
2023/05/31 10:04:09;;;;;;;6.80;6.10;;;;;;;24.88;52.92;95787.20;106663;1276;22521;-71
2023/05/31 10:06:37;;;;;;;9.20;6.10;;;;;;;24.91;49.92;95781.77;106655;1276;22526;-70
2023/05/31 10:09:07;;;;;;;9.70;6.30;;;;;;;24.77;50.59;95780.25;106615;1276;24262;-70
2023/05/31 10:11:41;;;;;;;7.80;6.40;;;;;;;24.62;51.78;95785.84;106614;1276;24151;-71
2023/05/31 10:14:15;;;;;;;7.80;6.10;;;;;;;24.47;51.95;95782.55;106637;1276;22647;-71
2023/05/31 10:16:51;;;;;;;8.60;6.60;;;;;;;24.29;52.81;95784.73;106630;1266;24262;-71
2023/05/31 10:19:24;;;;;;;7.90;6.30;;;;;;;24.11;51.90;95783.07;106718;1276;25397;-70
2023/05/31 10:21:55;;;;;;;8.40;6.40;;;;;;;23.91;52.20;95783.91;106629;1276;23885;-70
2023/05/31 10:24:35;;;;;;;8.30;6.20;;;;;;;23.73;52.92;95784.61;106628;1276;22601;-71
2023/05/31 10:27:11;;;;;;;7.80;6.10;;;;;;;23.52;52.97;95783.14;106632;1276;22546;-70
2023/05/31 10:29:44;;;;;;;8.10;5.90;;;;;;;23.37;53.14;95783.43;106607;1276;24213;-70
2023/05/31 10:32:19;;;;;;;8.70;6.20;;;;;;;23.19;53.00;95782.96;106576;1254;22531;-70
2023/05/31 10:34:49;;;;;;;10.00;6.00;;;;;;;23.04;52.98;95781.78;106578;1275;22546;-70
2023/05/31 10:37:17;;;;;;;8.30;6.80;;;;;;;22.93;53.12;95784.41;106639;1276;22523;-70
2023/05/31 10:40:05;;;;;;;7.50;6.30;;;;;;;22.82;53.39;95792.17;106654;1276;23890;-70
2023/05/31 10:42:59;;;;;;;8.40;5.30;;;;;;;22.75;54.42;95804.80;106596;1276;23942;-70
2023/05/31 10:45:46;;;;;;;10.60;4.40;;;;;;;22.56;50.50;95807.80;106625;1276;22601;-70
2023/05/31 10:48:55;;;;;;;7.90;4.90;;;;;;;22.36;49.06;95810.10;106622;1276;25472;-70
2023/05/31 10:51:45;;;;;;;7.30;4.30;;;;;;;22.33;49.82;95806.91;106610;1276;24210;-70
2023/05/31 10:54:21;;;;;;;8.20;4.50;;;;;;;22.23;50.02;95805.16;106563;1276;24347;-70
2023/05/31 10:56:57;;;;;;;6.20;3.90;;;;;;;21.94;50.78;95807.77;106540;1276;24334;-70
2023/05/31 10:59:26;;;;;;;7.70;5.00;;;;;;;21.67;52.29;95805.08;106633;1276;24260;-70
2023/05/31 11:01:58;;;;;;;5.30;4.60;;;;;;;21.58;53.06;95811.55;106601;1261;22810;-71
2023/05/31 11:04:26;;;;;;;7.80;4.90;;;;;;;21.75;54.48;95810.19;106576;1276;24329;-70
2023/05/31 11:07:11;;;;;;;7.00;4.50;;;;;;;22.19;54.65;95803.79;106628;1276;22566;-70
2023/05/31 11:09:41;;;;;;;10.30;4.80;;;;;;;22.61;53.63;95794.36;106577;1276;22544;-71
2023/05/31 11:12:12;;;;;;;8.10;4.30;;;;;;;22.97;53.70;95795.17;106647;1276;25343;-71
2023/05/31 11:14:40;;;;;;;7.00;4.60;;;;;;;23.26;52.36;95800.83;106635;1276;22539;-70
2023/05/31 11:17:08;;;;;;;5.10;4.20;;;;;;;23.35;50.84;95799.86;106551;1276;22640;-70
2023/05/31 11:19:37;;;;;;;5.80;4.30;;;;;;;23.01;50.03;95807.11;106561;1276;22641;-70
2023/05/31 11:22:07;;;;;;;10.40;4.40;;;;;;;22.59;51.91;95812.23;106660;1276;25335;-70
2023/05/31 11:24:52;;;;;;;7.50;5.00;;;;;;;22.32;52.92;95821.29;106573;1276;24359;-71
2023/05/31 11:27:21;;;;;;;15.50;5.00;;;;;;;21.86;48.72;95830.66;106798;1276;22604;-70
2023/05/31 11:29:51;;;;;;;8.00;5.60;;;;;;;21.53;50.56;95848.35;106805;1276;24383;-70
2023/05/31 11:32:22;;;;;;;9.90;5.30;;;;;;;21.23;54.24;95864.90;106571;1276;25495;-71
2023/05/31 11:34:53;;;;;;;7.20;5.10;;;;;;;20.88;56.55;95875.93;106648;1276;22625;-70
2023/05/31 11:37:26;;;;;;;10.50;5.50;;;;;;;20.54;61.63;95882.60;106689;1276;22530;-70
2023/05/31 11:39:56;;;;;;;7.10;5.30;;;;;;;20.18;65.26;95882.15;106552;1276;25405;-70
2023/05/31 11:42:29;;;;;;;8.20;5.10;;;;;;;19.86;66.38;95881.13;106632;1276;25350;-71
2023/05/31 11:45:06;;;;;;;9.90;5.20;;;;;;;19.61;67.72;95879.13;106636;1253;22536;-71
2023/05/31 11:47:43;;;;;;;10.30;5.50;;;;;;;19.46;67.29;95873.95;106596;1276;24234;-71
2023/05/31 11:50:13;;;;;;;8.20;5.40;;;;;;;19.44;66.69;95876.91;106552;1276;25412;-70
2023/05/31 11:52:42;;;;;;;8.40;5.70;;;;;;;19.38;69.05;95877.03;106623;1276;22549;-70
2023/05/31 11:55:12;;;;;;;9.10;5.60;;;;;;;19.51;71.64;95870.70;106669;1276;22520;-71
2023/05/31 11:57:51;;;;;;;7.20;5.10;;;;;;;19.77;70.42;95858.36;106575;1276;24254;-71
2023/05/31 12:00:23;;;;;;;7.90;5.00;;;;;;;20.27;70.97;95853.80;106539;1276;24202;-71
2023/05/31 12:02:56;;;;;;;7.50;4.90;;;;;;;20.80;66.89;95846.34;106551;1276;22530;-71
2023/05/31 12:05:24;;;;;;;7.20;4.90;;;;;;;21.34;69.42;95835.11;106575;1276;25255;-71
2023/05/31 12:07:54;;;;;;;6.30;4.80;;;;;;;21.69;67.39;95824.88;106599;1276;24251;-71
2023/05/31 12:10:27;;;;;;;8.00;5.20;;;;;;;21.84;64.84;95816.11;106558;1264;22517;-71
2023/05/31 12:12:57;;;;;;;9.00;5.50;;;;;;;21.89;64.75;95813.48;106644;1276;24438;-70
2023/05/31 12:15:30;;;;;;;7.00;5.40;;;;;;;22.05;63.88;95807.31;106618;1276;22520;-71
2023/05/31 12:17:59;;;;;;;10.80;6.70;;;;;;;22.40;63.03;95807.67;106635;1272;22573;-70
2023/05/31 12:20:29;;;;;;;7.60;5.90;;;;;;;22.80;62.25;95811.33;106650;1276;22514;-70
2023/05/31 12:23:14;;;;;;;8.50;5.40;;;;;;;23.19;61.18;95807.20;106604;1276;24415;-70
2023/05/31 12:25:50;;;;;;;13.50;5.60;;;;;;;23.53;60.12;95809.98;106662;1276;22633;-71
2023/05/31 12:28:21;;;;;;;8.50;5.90;;;;;;;23.72;57.48;95804.79;106857;1276;25545;-71
2023/05/31 12:30:53;;;;;;;8.40;6.00;;;;;;;23.69;58.19;95810.73;106758;1276;24383;-71
2023/05/31 12:33:21;;;;;;;10.10;5.70;;;;;;;23.44;58.70;95813.63;106590;1276;22529;-71
2023/05/31 12:35:52;;;;;;;7.50;6.00;;;;;;;23.11;59.52;95822.43;106583;1276;23146;-71
2023/05/31 12:38:28;;;;;;;9.20;5.90;;;;;;;22.68;59.66;95824.73;106401;1276;24328;-71
2023/05/31 12:40:56;;;;;;;8.40;5.90;;;;;;;22.25;61.29;95831.40;106655;1276;22524;-70
2023/05/31 12:43:25;;;;;;;6.90;6.10;;;;;;;21.95;61.97;95839.06;106599;1276;24208;-70
2023/05/31 12:45:53;;;;;;;10.30;6.10;;;;;;;21.55;64.01;95839.07;106614;1276;26518;-69
2023/05/31 12:48:24;;;;;;;8.00;6.50;;;;;;;21.23;65.24;95841.61;106528;1276;24217;-70
2023/05/31 12:50:52;;;;;;;8.30;6.30;;;;;;;20.98;66.33;95837.49;106621;1276;25344;-70
2023/05/31 12:53:25;;;;;;;9.50;6.50;;;;;;;20.76;66.56;95840.48;106551;1276;25319;-70
2023/05/31 12:55:53;;;;;;;10.60;6.30;;;;;;;20.55;66.98;95847.83;106601;1276;23920;-70
2023/05/31 12:58:21;;;;;;;11.30;6.40;;;;;;;20.35;67.25;95853.20;106557;1276;22550;-71
2023/05/31 13:00:50;;;;;;;15.00;6.40;;;;;;;20.15;69.53;95848.36;106611;1276;24660;-71
2023/05/31 13:03:19;;;;;;;11.50;7.70;;;;;;;19.97;70.25;95841.79;106670;1276;23890;-70
2023/05/31 13:05:47;;;;;;;17.80;7.30;;;;;;;19.78;70.28;95846.52;106575;1276;24329;-70
2023/05/31 13:08:15;;;;;;;11.70;7.30;;;;;;;19.63;71.30;95849.57;106604;1276;25297;-71
2023/05/31 13:10:43;;;;;;;17.90;7.10;;;;;;;19.50;71.55;95845.23;106583;1276;24239;-71
2023/05/31 13:13:11;;;;;;;9.80;6.80;;;;;;;19.35;71.45;95841.33;106566;1276;25309;-70
2023/05/31 13:15:40;;;;;;;12.50;7.60;;;;;;;19.22;71.32;95841.60;106602;1276;22528;-70
2023/05/31 13:18:08;;;;;;;9.90;6.70;;;;;;;19.10;71.38;95844.17;106553;1276;22516;-70
2023/05/31 13:20:37;;;;;;;10.80;6.50;;;;;;;19.02;72.16;95845.24;106630;1276;25261;-71
2023/05/31 13:23:08;;;;;;;13.50;6.00;;;;;;;18.97;73.39;95845.46;106577;1276;22755;-71
2023/05/31 13:25:36;;;;;;;12.50;6.30;;;;;;;18.92;74.93;95837.69;106619;1276;22645;-71
2023/05/31 13:28:05;;;;;;;15.20;6.70;;;;;;;18.85;73.93;95828.56;106604;1276;23679;-71
2023/05/31 13:30:34;;;;;;;11.90;6.50;;;;;;;18.79;74.15;95812.83;106573;1276;22521;-71
2023/05/31 13:33:02;;;;;;;11.80;6.50;;;;;;;18.72;75.27;95807.26;106526;1276;22581;-71
2023/05/31 13:35:31;;;;;;;11.10;6.00;;;;;;;18.76;75.33;95804.56;106554;1276;22551;-71
2023/05/31 13:38:00;;;;;;;9.20;5.50;;;;;;;18.76;74.79;95800.81;106607;1276;22630;-71
2023/05/31 13:40:28;;;;;;;7.10;5.10;;;;;;;18.76;74.56;95800.10;106636;1276;24264;-71
2023/05/31 13:42:56;;;;;;;11.20;6.20;;;;;;;18.87;75.05;95799.79;106638;1276;24368;-71
2023/05/31 13:45:25;;;;;;;8.90;6.20;;;;;;;18.93;73.92;95796.83;106613;1276;22523;-71
2023/05/31 13:47:53;;;;;;;9.00;6.20;;;;;;;18.76;74.86;95792.29;106602;1276;26624;-71
2023/05/31 13:50:21;;;;;;;9.70;5.90;;;;;;;18.67;76.01;95791.79;106546;1276;22739;-71
2023/05/31 13:52:50;;;;;;;8.10;5.20;;;;;;;18.67;76.48;95788.96;106552;1276;22517;-71
2023/05/31 13:55:19;;;;;;;8.20;5.40;;;;;;;18.68;74.01;95781.45;106599;1276;23873;-71
2023/05/31 13:57:50;;;;;;;10.90;5.60;;;;;;;18.80;73.53;95776.21;106612;1276;22613;-71
2023/05/31 14:00:19;;;;;;;7.70;4.60;;;;;;;18.95;73.08;95767.66;106562;1276;22615;-71
2023/05/31 14:02:47;;;;;;;5.90;3.80;;;;;;;19.17;71.36;95767.13;106551;1275;22532;-71
2023/05/31 14:05:15;;;;;;;6.60;3.90;;;;;;;19.43;67.54;95760.80;106621;1276;22656;-70
2023/05/31 14:07:44;;;;;;;5.00;4.20;;;;;;;19.75;67.07;95762.98;106579;1276;22722;-71
2023/05/31 14:10:12;;;;;;;5.30;4.20;;;;;;;20.12;66.85;95761.70;106559;1276;24496;-72
2023/05/31 14:12:41;;;;;;;5.90;4.60;;;;;;;20.80;65.65;95750.66;106603;1276;24252;-70
2023/05/31 14:15:10;;;;;;;6.10;3.90;;;;;;;21.71;62.71;95743.11;106659;1276;22627;-71
2023/05/31 14:17:38;;;;;;;5.70;4.30;;;;;;;22.16;60.52;95738.73;106540;1276;24277;-71
2023/05/31 14:20:07;;;;;;;6.70;3.40;;;;;;;22.51;57.95;95736.05;106558;1276;23258;-70
2023/05/31 14:22:35;;;;;;;4.10;3.20;;;;;;;22.59;57.78;95730.67;106609;1276;24257;-71
2023/05/31 14:25:05;;;;;;;3.30;2.80;;;;;;;22.45;55.84;95728.91;106623;1276;22600;-71
2023/05/31 14:27:34;;;;;;;3.90;3.10;;;;;;;22.29;57.17;95726.13;106817;1276;24398;-71
2023/05/31 14:30:02;;;;;;;3.60;3.20;;;;;;;22.15;57.57;95727.37;106912;1276;22752;-71
2023/05/31 14:32:31;;;;;;;5.20;3.40;;;;;;;22.03;57.52;95730.39;106859;1276;24235;-71
2023/05/31 14:35:00;;;;;;;4.60;3.50;;;;;;;21.84;58.22;95735.52;106624;1276;22529;-70
2023/05/31 14:37:28;;;;;;;13.20;3.10;;;;;;;21.48;57.53;95740.36;106686;1276;23886;-70
2023/05/31 14:40:14;;;;;;;4.90;3.40;;;;;;;21.30;57.44;95739.45;106645;1276;22516;-71
2023/05/31 14:42:42;;;;;;;4.10;3.30;;;;;;;21.26;58.45;95745.23;106632;1276;24314;-71
2023/05/31 14:45:10;;;;;;;3.70;3.00;;;;;;;21.14;57.21;95752.00;106581;1276;22638;-71
2023/05/31 14:47:39;;;;;;;4.30;3.20;;;;;;;21.13;57.99;95753.11;106536;1276;22532;-71
2023/05/31 14:50:10;;;;;;;3.90;2.90;;;;;;;21.08;58.61;95754.67;106617;1276;25370;-70
2023/05/31 14:52:38;;;;;;;4.80;2.70;;;;;;;20.95;57.52;95763.24;106623;1276;24246;-70
2023/05/31 14:55:07;;;;;;;4.40;3.50;;;;;;;20.94;59.96;95771.00;106558;1276;22529;-70
2023/05/31 14:57:35;;;;;;;4.20;3.40;;;;;;;21.00;61.89;95774.27;106677;1276;24380;-71
2023/05/31 15:00:05;;;;;;;5.50;3.60;;;;;;;21.05;63.03;95775.56;106600;1276;25312;-70
2023/05/31 15:02:33;;;;;;;6.60;3.20;;;;;;;21.15;63.09;95772.14;106634;1276;25650;-70
2023/05/31 15:05:02;;;;;;;4.60;2.80;;;;;;;21.16;62.67;95768.12;106379;1276;22598;-70
2023/05/31 15:07:30;;;;;;;4.00;3.50;;;;;;;21.18;62.02;95765.53;106517;1276;24260;-70
2023/05/31 15:09:58;;;;;;;5.10;3.60;;;;;;;21.24;62.18;95768.06;106568;1276;22931;-70
2023/05/31 15:12:26;;;;;;;4.90;4.00;;;;;;;21.49;61.94;95767.48;106553;1276;25502;-70
2023/05/31 15:14:54;;;;;;;5.40;3.90;;;;;;;21.76;58.96;95761.09;106627;1276;22578;-70
2023/05/31 15:17:22;;;;;;;5.80;4.60;;;;;;;21.84;56.95;95755.04;106598;1276;24230;-70
2023/05/31 15:19:50;;;;;;;4.80;3.60;;;;;;;21.69;55.18;95753.23;106547;1276;22530;-70
2023/05/31 15:22:19;;;;;;;5.80;3.80;;;;;;;21.68;56.69;95751.34;106581;1276;24118;-70
2023/05/31 15:24:48;;;;;;;5.40;3.30;;;;;;;21.69;57.22;95755.23;106580;1276;22515;-70
2023/05/31 15:27:16;;;;;;;4.30;3.40;;;;;;;21.58;57.63;95751.89;106646;1276;22527;-70
2023/05/31 15:29:44;;;;;;;7.80;4.10;;;;;;;21.50;56.60;95754.02;106530;1276;23885;-70
2023/05/31 15:32:12;;;;;;;5.30;3.50;;;;;;;21.25;56.08;95753.33;106516;1276;24250;-70
2023/05/31 15:34:41;;;;;;;5.20;4.10;;;;;;;21.11;57.05;95753.91;106603;1276;22999;-70
2023/05/31 15:37:09;;;;;;;5.20;3.00;;;;;;;21.04;57.68;95753.66;106596;1276;25595;-70
2023/05/31 15:39:38;;;;;;;3.90;2.90;;;;;;;21.00;57.88;95751.91;106639;1276;22527;-70
2023/05/31 15:42:06;;;;;;;3.40;2.60;;;;;;;20.89;58.57;95754.30;106599;1276;22840;-70
2023/05/31 15:44:34;;;;;;;4.50;2.90;;;;;;;20.77;59.74;95756.77;106564;1276;25305;-70
2023/05/31 15:47:03;;;;;;;5.10;3.10;;;;;;;20.73;61.01;95763.61;106627;1276;23877;-70
2023/05/31 15:49:31;;;;;;;4.20;3.00;;;;;;;20.67;63.30;95761.42;106680;1276;22527;-71
2023/05/31 15:51:59;;;;;;;4.30;3.10;;;;;;;20.58;64.26;95765.53;106606;1275;22522;-71
2023/05/31 15:54:28;;;;;;;6.00;2.90;;;;;;;20.64;64.46;95761.80;106578;1276;22516;-70
2023/05/31 15:56:56;;;;;;;2.80;2.30;;;;;;;20.63;65.44;95763.80;106605;1276;24254;-71
2023/05/31 15:59:25;;;;;;;4.90;3.40;;;;;;;20.47;63.97;95766.41;106598;1276;25471;-71
2023/05/31 16:01:53;;;;;;;5.80;2.40;;;;;;;20.29;64.72;95770.46;106563;1276;25399;-71
2023/05/31 16:04:22;;;;;;;3.20;2.40;;;;;;;20.07;65.71;95763.59;106580;1276;25308;-70
2023/05/31 16:06:50;;;;;;;3.40;2.60;;;;;;;19.85;65.68;95767.60;106572;1276;25309;-71
2023/05/31 16:09:18;;;;;;;3.90;2.60;;;;;;;19.71;66.69;95765.83;106873;1276;25383;-71
2023/05/31 16:11:46;;;;;;;2.60;2.40;;;;;;;19.61;66.69;95764.92;106494;1276;22746;-71
2023/05/31 16:14:17;;;;;;;2.90;2.20;;;;;;;19.49;63.89;95764.80;106628;1276;24276;-71
2023/05/31 16:16:46;;;;;;;2.50;2.30;;;;;;;19.32;65.82;95770.48;106579;1276;22566;-71
2023/05/31 16:19:15;;;;;;;4.70;2.30;;;;;;;19.18;66.06;95767.09;106678;1276;22524;-71
2023/05/31 16:21:43;;;;;;;4.00;1.90;;;;;;;19.03;66.72;95767.27;106537;1276;23876;-70
2023/05/31 16:24:12;;;;;;;3.10;2.10;;;;;;;18.86;66.34;95767.92;106404;1276;22629;-71
2023/05/31 16:26:41;;;;;;;4.00;2.10;;;;;;;18.70;66.85;95770.97;106597;1276;25396;-70
2023/05/31 16:29:09;;;;;;;7.10;2.30;;;;;;;18.61;66.97;95771.04;106709;1276;24223;-71
2023/05/31 16:31:38;;;;;;;2.40;2.20;;;;;;;18.55;66.86;95769.02;106835;1276;22514;-71
2023/05/31 16:34:06;;;;;;;4.00;2.20;;;;;;;18.45;68.05;95767.20;106554;1276;22549;-71
2023/05/31 16:36:34;;;;;;;2.80;2.30;;;;;;;18.33;68.98;95768.94;106604;1264;24324;-71
2023/05/31 16:39:04;;;;;;;3.10;2.30;;;;;;;18.19;69.08;95767.29;106560;1276;25837;-71
2023/05/31 16:41:34;;;;;;;4.40;2.50;;;;;;;18.14;70.06;95768.97;106604;1276;25302;-71
2023/05/31 16:44:02;;;;;;;3.30;2.20;;;;;;;18.08;70.99;95764.59;106551;1276;22557;-70
2023/05/31 16:46:31;;;;;;;3.60;2.20;;;;;;;18.04;70.82;95764.05;106601;1276;22504;-70
2023/05/31 16:48:59;;;;;;;8.00;2.30;;;;;;;17.96;70.64;95764.27;106547;1276;22851;-70
2023/05/31 16:51:27;;;;;;;2.00;1.80;;;;;;;17.85;71.35;95769.54;106558;1276;22598;-70
2023/05/31 16:53:55;;;;;;;4.00;2.20;;;;;;;17.79;71.26;95766.79;106555;1276;22544;-70
2023/05/31 16:56:24;;;;;;;4.60;2.50;;;;;;;17.73;71.02;95768.10;106589;1276;24226;-70
2023/05/31 16:58:52;;;;;;;2.80;2.50;;;;;;;17.66;71.27;95767.84;106569;1276;22640;-70
2023/05/31 17:01:22;;;;;;;3.10;2.20;;;;;;;17.57;71.32;95768.78;106635;1276;22524;-70